sensor_id;sensor_type;location;lat;lon;timestamp;temperature;humidity
69382;DHT22;56560;50.692;12.844;2022-12-10T00:01:52;1.20;82.30
69382;DHT22;56560;50.692;12.844;2022-12-10T00:04:19;1.30;82.30
69382;DHT22;56560;50.692;12.844;2022-12-10T00:06:46;1.30;82.10
69382;DHT22;56560;50.692;12.844;2022-12-10T00:09:15;1.30;82.10
69382;DHT22;56560;50.692;12.844;2022-12-10T00:11:41;1.30;81.90
69382;DHT22;56560;50.692;12.844;2022-12-10T00:14:07;1.30;81.70
69382;DHT22;56560;50.692;12.844;2022-12-10T00:16:33;1.30;81.80
69382;DHT22;56560;50.692;12.844;2022-12-10T00:19:00;1.30;81.50
69382;DHT22;56560;50.692;12.844;2022-12-10T00:21:28;1.30;81.80
69382;DHT22;56560;50.692;12.844;2022-12-10T00:23:54;1.30;81.10
69382;DHT22;56560;50.692;12.844;2022-12-10T00:26:25;1.20;81.60
69382;DHT22;56560;50.692;12.844;2022-12-10T00:28:51;1.20;82.20
69382;DHT22;56560;50.692;12.844;2022-12-10T00:31:29;1.20;82.00
69382;DHT22;56560;50.692;12.844;2022-12-10T00:33:56;1.20;82.10
69382;DHT22;56560;50.692;12.844;2022-12-10T00:36:28;1.20;82.40
69382;DHT22;56560;50.692;12.844;2022-12-10T00:38:54;1.20;82.30
69382;DHT22;56560;50.692;12.844;2022-12-10T00:41:20;1.20;82.20
69382;DHT22;56560;50.692;12.844;2022-12-10T00:43:46;1.20;82.00
69382;DHT22;56560;50.692;12.844;2022-12-10T00:46:13;1.20;82.10
69382;DHT22;56560;50.692;12.844;2022-12-10T00:48:40;1.20;82.10
69382;DHT22;56560;50.692;12.844;2022-12-10T00:51:09;1.30;82.00
69382;DHT22;56560;50.692;12.844;2022-12-10T00:53:37;1.30;81.70
69382;DHT22;56560;50.692;12.844;2022-12-10T00:56:03;1.30;82.10
69382;DHT22;56560;50.692;12.844;2022-12-10T00:58:31;1.30;82.10
69382;DHT22;56560;50.692;12.844;2022-12-10T01:03:40;1.30;82.10
69382;DHT22;56560;50.692;12.844;2022-12-10T01:06:15;1.30;81.80
69382;DHT22;56560;50.692;12.844;2022-12-10T01:08:42;1.30;81.90
69382;DHT22;56560;50.692;12.844;2022-12-10T01:11:08;1.30;82.10
69382;DHT22;56560;50.692;12.844;2022-12-10T01:13:35;1.30;82.00
69382;DHT22;56560;50.692;12.844;2022-12-10T01:16:02;1.30;82.00
69382;DHT22;56560;50.692;12.844;2022-12-10T01:18:28;1.30;82.20
69382;DHT22;56560;50.692;12.844;2022-12-10T01:20:54;1.30;81.80
69382;DHT22;56560;50.692;12.844;2022-12-10T01:23:20;1.30;81.70
69382;DHT22;56560;50.692;12.844;2022-12-10T01:25:46;1.30;81.10
69382;DHT22;56560;50.692;12.844;2022-12-10T01:28:12;1.30;81.30
69382;DHT22;56560;50.692;12.844;2022-12-10T01:30:37;1.30;81.40
69382;DHT22;56560;50.692;12.844;2022-12-10T01:33:03;1.30;81.60
69382;DHT22;56560;50.692;12.844;2022-12-10T01:35:28;1.30;81.80
69382;DHT22;56560;50.692;12.844;2022-12-10T01:37:54;1.30;81.80
69382;DHT22;56560;50.692;12.844;2022-12-10T01:40:20;1.30;82.00
69382;DHT22;56560;50.692;12.844;2022-12-10T01:42:46;1.30;82.00
69382;DHT22;56560;50.692;12.844;2022-12-10T01:45:12;1.20;82.20
69382;DHT22;56560;50.692;12.844;2022-12-10T01:47:38;1.20;82.30
69382;DHT22;56560;50.692;12.844;2022-12-10T01:50:06;1.20;82.40
69382;DHT22;56560;50.692;12.844;2022-12-10T01:52:32;1.20;82.60
69382;DHT22;56560;50.692;12.844;2022-12-10T01:54:57;1.20;82.50
69382;DHT22;56560;50.692;12.844;2022-12-10T01:57:26;1.20;82.40
69382;DHT22;56560;50.692;12.844;2022-12-10T01:59:55;1.30;82.20
69382;DHT22;56560;50.692;12.844;2022-12-10T02:02:40;1.30;82.10
69382;DHT22;56560;50.692;12.844;2022-12-10T02:05:31;1.30;82.30
69382;DHT22;56560;50.692;12.844;2022-12-10T02:11:37;1.30;81.90
69382;DHT22;56560;50.692;12.844;2022-12-10T02:14:00;1.40;81.90
69382;DHT22;56560;50.692;12.844;2022-12-10T02:16:38;1.40;81.80
69382;DHT22;56560;50.692;12.844;2022-12-10T02:21:59;1.30;82.00
69382;DHT22;56560;50.692;12.844;2022-12-10T02:24:30;1.20;82.60
69382;DHT22;56560;50.692;12.844;2022-12-10T02:29:34;1.30;82.50
69382;DHT22;56560;50.692;12.844;2022-12-10T02:32:07;1.30;82.30
69382;DHT22;56560;50.692;12.844;2022-12-10T02:34:37;1.30;82.20
69382;DHT22;56560;50.692;12.844;2022-12-10T02:37:08;1.30;82.30
69382;DHT22;56560;50.692;12.844;2022-12-10T02:39:40;1.30;82.50
69382;DHT22;56560;50.692;12.844;2022-12-10T02:42:09;1.30;82.50
69382;DHT22;56560;50.692;12.844;2022-12-10T02:44:36;1.30;82.50
69382;DHT22;56560;50.692;12.844;2022-12-10T02:47:03;1.30;82.80
69382;DHT22;56560;50.692;12.844;2022-12-10T02:49:30;1.30;82.90
69382;DHT22;56560;50.692;12.844;2022-12-10T02:51:56;1.20;82.90
69382;DHT22;56560;50.692;12.844;2022-12-10T02:54:41;1.20;83.30
69382;DHT22;56560;50.692;12.844;2022-12-10T03:02:19;1.20;83.20
69382;DHT22;56560;50.692;12.844;2022-12-10T03:05:02;1.20;83.30
69382;DHT22;56560;50.692;12.844;2022-12-10T03:07:57;1.20;83.40
69382;DHT22;56560;50.692;12.844;2022-12-10T03:10:29;1.20;83.40
69382;DHT22;56560;50.692;12.844;2022-12-10T03:12:59;1.20;83.50
69382;DHT22;56560;50.692;12.844;2022-12-10T03:15:29;1.20;83.50
69382;DHT22;56560;50.692;12.844;2022-12-10T03:17:56;1.10;83.60
69382;DHT22;56560;50.692;12.844;2022-12-10T03:20:24;1.10;83.90
69382;DHT22;56560;50.692;12.844;2022-12-10T03:22:50;1.10;83.80
69382;DHT22;56560;50.692;12.844;2022-12-10T03:25:23;1.10;83.90
69382;DHT22;56560;50.692;12.844;2022-12-10T03:27:52;1.10;83.80
69382;DHT22;56560;50.692;12.844;2022-12-10T03:30:19;1.10;83.80
69382;DHT22;56560;50.692;12.844;2022-12-10T03:32:45;1.10;83.70
69382;DHT22;56560;50.692;12.844;2022-12-10T03:35:12;1.10;84.10
69382;DHT22;56560;50.692;12.844;2022-12-10T03:37:39;1.00;84.30
69382;DHT22;56560;50.692;12.844;2022-12-10T03:40:06;1.00;84.20
69382;DHT22;56560;50.692;12.844;2022-12-10T03:42:34;1.00;84.20
69382;DHT22;56560;50.692;12.844;2022-12-10T03:45:00;1.00;84.30
69382;DHT22;56560;50.692;12.844;2022-12-10T03:47:25;1.10;84.30
69382;DHT22;56560;50.692;12.844;2022-12-10T03:49:51;1.10;84.00
69382;DHT22;56560;50.692;12.844;2022-12-10T03:52:17;1.10;83.90
69382;DHT22;56560;50.692;12.844;2022-12-10T03:54:42;1.20;83.40
69382;DHT22;56560;50.692;12.844;2022-12-10T03:57:08;1.20;83.40
69382;DHT22;56560;50.692;12.844;2022-12-10T03:59:35;1.20;83.20
69382;DHT22;56560;50.692;12.844;2022-12-10T04:02:00;1.20;83.20
69382;DHT22;56560;50.692;12.844;2022-12-10T04:04:26;1.20;83.20
69382;DHT22;56560;50.692;12.844;2022-12-10T04:06:52;1.20;83.40
69382;DHT22;56560;50.692;12.844;2022-12-10T04:09:18;1.20;83.30
69382;DHT22;56560;50.692;12.844;2022-12-10T04:11:44;1.20;83.50
69382;DHT22;56560;50.692;12.844;2022-12-10T04:14:11;1.20;83.60
69382;DHT22;56560;50.692;12.844;2022-12-10T04:16:56;1.20;83.70
69382;DHT22;56560;50.692;12.844;2022-12-10T04:19:23;1.20;83.50
69382;DHT22;56560;50.692;12.844;2022-12-10T04:21:49;1.20;83.30
69382;DHT22;56560;50.692;12.844;2022-12-10T04:24:35;1.20;83.20
69382;DHT22;56560;50.692;12.844;2022-12-10T04:29:50;1.20;83.00
69382;DHT22;56560;50.692;12.844;2022-12-10T04:32:16;1.20;83.10
69382;DHT22;56560;50.692;12.844;2022-12-10T04:34:42;1.10;83.10
69382;DHT22;56560;50.692;12.844;2022-12-10T04:37:08;1.10;83.60
69382;DHT22;56560;50.692;12.844;2022-12-10T04:39:34;1.10;83.50
69382;DHT22;56560;50.692;12.844;2022-12-10T04:42:00;1.10;83.30
69382;DHT22;56560;50.692;12.844;2022-12-10T04:44:26;1.10;83.40
69382;DHT22;56560;50.692;12.844;2022-12-10T04:46:52;1.00;84.10
69382;DHT22;56560;50.692;12.844;2022-12-10T04:49:18;1.10;84.00
69382;DHT22;56560;50.692;12.844;2022-12-10T04:51:44;1.10;84.00
69382;DHT22;56560;50.692;12.844;2022-12-10T04:54:10;1.20;83.30
69382;DHT22;56560;50.692;12.844;2022-12-10T04:56:36;1.10;83.00
69382;DHT22;56560;50.692;12.844;2022-12-10T04:59:03;1.10;83.40
69382;DHT22;56560;50.692;12.844;2022-12-10T05:01:29;1.10;83.30
69382;DHT22;56560;50.692;12.844;2022-12-10T05:04:02;1.00;83.40
69382;DHT22;56560;50.692;12.844;2022-12-10T05:06:28;1.10;82.80
69382;DHT22;56560;50.692;12.844;2022-12-10T05:08:54;1.00;83.00
69382;DHT22;56560;50.692;12.844;2022-12-10T05:11:21;1.10;82.80
69382;DHT22;56560;50.692;12.844;2022-12-10T05:13:47;1.10;82.80
69382;DHT22;56560;50.692;12.844;2022-12-10T05:16:15;1.00;83.10
69382;DHT22;56560;50.692;12.844;2022-12-10T05:18:41;1.00;82.90
69382;DHT22;56560;50.692;12.844;2022-12-10T05:21:11;0.90;83.20
69382;DHT22;56560;50.692;12.844;2022-12-10T05:23:39;0.90;83.20
69382;DHT22;56560;50.692;12.844;2022-12-10T05:26:07;0.90;83.40
69382;DHT22;56560;50.692;12.844;2022-12-10T05:28:36;0.80;83.70
69382;DHT22;56560;50.692;12.844;2022-12-10T05:31:02;0.80;83.70
69382;DHT22;56560;50.692;12.844;2022-12-10T05:33:28;0.80;83.60
69382;DHT22;56560;50.692;12.844;2022-12-10T05:35:55;0.90;83.60
69382;DHT22;56560;50.692;12.844;2022-12-10T05:38:21;0.90;83.30
69382;DHT22;56560;50.692;12.844;2022-12-10T05:40:47;0.90;83.80
69382;DHT22;56560;50.692;12.844;2022-12-10T05:43:12;1.00;83.30
69382;DHT22;56560;50.692;12.844;2022-12-10T05:45:38;1.00;83.30
69382;DHT22;56560;50.692;12.844;2022-12-10T05:48:04;1.00;83.30
69382;DHT22;56560;50.692;12.844;2022-12-10T05:50:31;1.00;83.10
69382;DHT22;56560;50.692;12.844;2022-12-10T05:52:57;1.00;83.20
69382;DHT22;56560;50.692;12.844;2022-12-10T05:55:23;1.10;83.00
69382;DHT22;56560;50.692;12.844;2022-12-10T05:57:48;1.10;83.20
69382;DHT22;56560;50.692;12.844;2022-12-10T06:00:38;1.10;82.90
69382;DHT22;56560;50.692;12.844;2022-12-10T06:03:09;1.10;83.20
69382;DHT22;56560;50.692;12.844;2022-12-10T06:05:47;1.10;83.40
69382;DHT22;56560;50.692;12.844;2022-12-10T06:08:33;1.20;83.20
69382;DHT22;56560;50.692;12.844;2022-12-10T06:11:19;1.20;82.80
69382;DHT22;56560;50.692;12.844;2022-12-10T06:14:21;1.20;83.10
69382;DHT22;56560;50.692;12.844;2022-12-10T06:16:47;1.20;82.70
69382;DHT22;56560;50.692;12.844;2022-12-10T06:19:36;1.20;82.70
69382;DHT22;56560;50.692;12.844;2022-12-10T06:22:09;1.20;83.10
69382;DHT22;56560;50.692;12.844;2022-12-10T06:24:35;1.20;83.10
69382;DHT22;56560;50.692;12.844;2022-12-10T06:27:00;1.20;82.90
69382;DHT22;56560;50.692;12.844;2022-12-10T06:29:26;1.20;83.10
69382;DHT22;56560;50.692;12.844;2022-12-10T06:31:52;1.10;83.30
69382;DHT22;56560;50.692;12.844;2022-12-10T06:34:17;1.10;83.10
69382;DHT22;56560;50.692;12.844;2022-12-10T06:36:43;1.10;83.40
69382;DHT22;56560;50.692;12.844;2022-12-10T06:39:08;1.10;83.20
69382;DHT22;56560;50.692;12.844;2022-12-10T06:41:34;1.00;83.40
69382;DHT22;56560;50.692;12.844;2022-12-10T06:44:00;1.00;83.30
69382;DHT22;56560;50.692;12.844;2022-12-10T06:46:26;1.00;83.40
69382;DHT22;56560;50.692;12.844;2022-12-10T06:48:55;1.00;83.20
69382;DHT22;56560;50.692;12.844;2022-12-10T06:51:21;1.00;83.50
69382;DHT22;56560;50.692;12.844;2022-12-10T06:53:46;1.00;83.70
69382;DHT22;56560;50.692;12.844;2022-12-10T06:56:18;1.00;83.40
69382;DHT22;56560;50.692;12.844;2022-12-10T06:58:44;1.10;83.00
69382;DHT22;56560;50.692;12.844;2022-12-10T07:01:14;1.10;82.60
69382;DHT22;56560;50.692;12.844;2022-12-10T07:03:41;1.10;82.80
69382;DHT22;56560;50.692;12.844;2022-12-10T07:06:08;1.10;82.40
69382;DHT22;56560;50.692;12.844;2022-12-10T07:08:34;1.10;82.40
69382;DHT22;56560;50.692;12.844;2022-12-10T07:11:04;1.10;82.50
69382;DHT22;56560;50.692;12.844;2022-12-10T07:13:30;1.10;82.20
69382;DHT22;56560;50.692;12.844;2022-12-10T07:15:58;1.10;82.10
69382;DHT22;56560;50.692;12.844;2022-12-10T07:18:24;1.10;82.10
69382;DHT22;56560;50.692;12.844;2022-12-10T07:20:50;1.10;82.10
69382;DHT22;56560;50.692;12.844;2022-12-10T07:23:16;1.10;82.10
69382;DHT22;56560;50.692;12.844;2022-12-10T07:25:42;1.10;81.50
69382;DHT22;56560;50.692;12.844;2022-12-10T07:28:08;1.10;81.60
69382;DHT22;56560;50.692;12.844;2022-12-10T07:30:33;1.10;81.50
69382;DHT22;56560;50.692;12.844;2022-12-10T07:32:59;1.20;81.50
69382;DHT22;56560;50.692;12.844;2022-12-10T07:35:25;1.20;81.40
69382;DHT22;56560;50.692;12.844;2022-12-10T07:37:54;1.20;81.10
69382;DHT22;56560;50.692;12.844;2022-12-10T07:40:19;1.30;81.00
69382;DHT22;56560;50.692;12.844;2022-12-10T07:42:45;1.30;80.30
69382;DHT22;56560;50.692;12.844;2022-12-10T07:45:11;1.30;80.00
69382;DHT22;56560;50.692;12.844;2022-12-10T07:47:38;1.30;79.70
69382;DHT22;56560;50.692;12.844;2022-12-10T07:50:04;1.30;79.20
69382;DHT22;56560;50.692;12.844;2022-12-10T07:52:31;1.40;79.00
69382;DHT22;56560;50.692;12.844;2022-12-10T07:54:56;1.40;78.50
69382;DHT22;56560;50.692;12.844;2022-12-10T07:57:22;1.50;78.60
69382;DHT22;56560;50.692;12.844;2022-12-10T07:59:48;1.50;78.50
69382;DHT22;56560;50.692;12.844;2022-12-10T08:02:14;1.50;77.70
69382;DHT22;56560;50.692;12.844;2022-12-10T08:04:39;1.60;77.70
69382;DHT22;56560;50.692;12.844;2022-12-10T08:07:05;1.60;77.40
69382;DHT22;56560;50.692;12.844;2022-12-10T08:09:32;1.60;76.10
69382;DHT22;56560;50.692;12.844;2022-12-10T08:11:58;1.70;76.60
69382;DHT22;56560;50.692;12.844;2022-12-10T08:14:23;1.70;75.60
69382;DHT22;56560;50.692;12.844;2022-12-10T08:16:49;1.70;75.10
69382;DHT22;56560;50.692;12.844;2022-12-10T08:19:15;1.60;74.90
69382;DHT22;56560;50.692;12.844;2022-12-10T08:21:40;1.60;74.70
69382;DHT22;56560;50.692;12.844;2022-12-10T08:24:07;1.60;74.50
69382;DHT22;56560;50.692;12.844;2022-12-10T08:26:33;1.60;73.40
69382;DHT22;56560;50.692;12.844;2022-12-10T08:29:00;1.60;71.90
69382;DHT22;56560;50.692;12.844;2022-12-10T08:31:26;1.50;71.10
69382;DHT22;56560;50.692;12.844;2022-12-10T08:33:53;1.50;72.50
69382;DHT22;56560;50.692;12.844;2022-12-10T08:36:19;1.70;72.50
69382;DHT22;56560;50.692;12.844;2022-12-10T08:38:45;1.80;71.20
69382;DHT22;56560;50.692;12.844;2022-12-10T08:41:17;1.90;69.80
69382;DHT22;56560;50.692;12.844;2022-12-10T08:43:43;2.10;69.30
69382;DHT22;56560;50.692;12.844;2022-12-10T08:46:10;2.10;69.00
69382;DHT22;56560;50.692;12.844;2022-12-10T08:48:36;2.20;67.80
69382;DHT22;56560;50.692;12.844;2022-12-10T08:51:03;2.20;66.90
69382;DHT22;56560;50.692;12.844;2022-12-10T08:53:29;2.30;68.30
69382;DHT22;56560;50.692;12.844;2022-12-10T08:55:55;2.30;67.80
69382;DHT22;56560;50.692;12.844;2022-12-10T08:58:21;2.30;68.40
69382;DHT22;56560;50.692;12.844;2022-12-10T09:00:48;2.40;67.10
69382;DHT22;56560;50.692;12.844;2022-12-10T09:03:13;2.50;67.40
69382;DHT22;56560;50.692;12.844;2022-12-10T09:05:39;2.40;66.80
69382;DHT22;56560;50.692;12.844;2022-12-10T09:08:05;2.50;68.00
69382;DHT22;56560;50.692;12.844;2022-12-10T09:10:32;2.70;68.00
69382;DHT22;56560;50.692;12.844;2022-12-10T09:12:57;2.60;67.50
69382;DHT22;56560;50.692;12.844;2022-12-10T09:15:23;2.60;67.60
69382;DHT22;56560;50.692;12.844;2022-12-10T09:17:48;2.60;68.00
69382;DHT22;56560;50.692;12.844;2022-12-10T09:20:14;2.70;68.20
69382;DHT22;56560;50.692;12.844;2022-12-10T09:22:40;2.80;68.30
69382;DHT22;56560;50.692;12.844;2022-12-10T09:25:07;2.90;68.10
69382;DHT22;56560;50.692;12.844;2022-12-10T09:27:35;2.90;68.40
69382;DHT22;56560;50.692;12.844;2022-12-10T09:30:01;2.90;68.90
69382;DHT22;56560;50.692;12.844;2022-12-10T09:32:27;2.90;69.10
69382;DHT22;56560;50.692;12.844;2022-12-10T09:34:53;3.00;69.90
69382;DHT22;56560;50.692;12.844;2022-12-10T09:37:19;2.90;69.70
69382;DHT22;56560;50.692;12.844;2022-12-10T09:39:44;2.90;69.70
69382;DHT22;56560;50.692;12.844;2022-12-10T09:47:52;3.00;70.60
69382;DHT22;56560;50.692;12.844;2022-12-10T09:53:04;3.20;70.20
69382;DHT22;56560;50.692;12.844;2022-12-10T09:55:43;3.20;69.70
69382;DHT22;56560;50.692;12.844;2022-12-10T09:58:16;3.20;69.70
69382;DHT22;56560;50.692;12.844;2022-12-10T10:00:47;3.10;70.10
69382;DHT22;56560;50.692;12.844;2022-12-10T10:03:14;2.90;70.60
69382;DHT22;56560;50.692;12.844;2022-12-10T10:05:51;2.80;71.30
69382;DHT22;56560;50.692;12.844;2022-12-10T10:08:34;2.60;71.70
69382;DHT22;56560;50.692;12.844;2022-12-10T10:11:03;2.60;72.00
69382;DHT22;56560;50.692;12.844;2022-12-10T10:16:24;2.60;72.40
69382;DHT22;56560;50.692;12.844;2022-12-10T10:19:02;2.60;72.40
69382;DHT22;56560;50.692;12.844;2022-12-10T10:21:41;2.60;72.70
69382;DHT22;56560;50.692;12.844;2022-12-10T10:24:12;2.60;72.70
69382;DHT22;56560;50.692;12.844;2022-12-10T10:26:39;2.50;73.50
69382;DHT22;56560;50.692;12.844;2022-12-10T10:29:06;2.50;73.90
69382;DHT22;56560;50.692;12.844;2022-12-10T10:31:34;2.50;74.10
69382;DHT22;56560;50.692;12.844;2022-12-10T10:34:04;2.40;73.60
69382;DHT22;56560;50.692;12.844;2022-12-10T10:36:33;2.40;74.20
69382;DHT22;56560;50.692;12.844;2022-12-10T10:39:24;2.30;74.40
69382;DHT22;56560;50.692;12.844;2022-12-10T10:41:53;2.20;75.20
69382;DHT22;56560;50.692;12.844;2022-12-10T10:44:21;2.00;76.20
69382;DHT22;56560;50.692;12.844;2022-12-10T10:46:51;1.90;77.00
69382;DHT22;56560;50.692;12.844;2022-12-10T10:49:40;1.70;76.90
69382;DHT22;56560;50.692;12.844;2022-12-10T10:52:16;1.60;78.50
69382;DHT22;56560;50.692;12.844;2022-12-10T10:54:46;1.50;78.90
69382;DHT22;56560;50.692;12.844;2022-12-10T10:57:36;1.60;78.80
69382;DHT22;56560;50.692;12.844;2022-12-10T11:00:21;1.60;79.10
69382;DHT22;56560;50.692;12.844;2022-12-10T11:02:48;1.60;79.90
69382;DHT22;56560;50.692;12.844;2022-12-10T11:07:47;1.30;80.00
69382;DHT22;56560;50.692;12.844;2022-12-10T11:12:42;1.10;80.60
69382;DHT22;56560;50.692;12.844;2022-12-10T11:17:52;1.10;80.20
69382;DHT22;56560;50.692;12.844;2022-12-10T11:20:24;1.10;80.10
69382;DHT22;56560;50.692;12.844;2022-12-10T11:22:53;1.10;80.70
69382;DHT22;56560;50.692;12.844;2022-12-10T11:25:33;1.10;80.00
69382;DHT22;56560;50.692;12.844;2022-12-10T11:28:51;1.10;79.60
69382;DHT22;56560;50.692;12.844;2022-12-10T11:31:36;1.00;80.90
69382;DHT22;56560;50.692;12.844;2022-12-10T11:34:13;1.10;81.00
69382;DHT22;56560;50.692;12.844;2022-12-10T11:44:47;1.10;80.10
69382;DHT22;56560;50.692;12.844;2022-12-10T11:55:58;1.10;82.20
69382;DHT22;56560;50.692;12.844;2022-12-10T12:04:10;1.10;80.70
69382;DHT22;56560;50.692;12.844;2022-12-10T12:12:18;1.20;79.40
69382;DHT22;56560;50.692;12.844;2022-12-10T12:14:57;1.10;79.00
69382;DHT22;56560;50.692;12.844;2022-12-10T12:18:06;1.00;79.70
69382;DHT22;56560;50.692;12.844;2022-12-10T12:23:00;1.10;79.90
69382;DHT22;56560;50.692;12.844;2022-12-10T12:25:55;1.20;79.30
69382;DHT22;56560;50.692;12.844;2022-12-10T12:28:35;1.30;79.00
69382;DHT22;56560;50.692;12.844;2022-12-10T12:31:06;1.30;78.80
69382;DHT22;56560;50.692;12.844;2022-12-10T12:34:21;1.40;78.60
69382;DHT22;56560;50.692;12.844;2022-12-10T12:36:45;1.40;78.60
69382;DHT22;56560;50.692;12.844;2022-12-10T12:42:22;1.10;77.90
69382;DHT22;56560;50.692;12.844;2022-12-10T12:45:02;0.90;79.30
69382;DHT22;56560;50.692;12.844;2022-12-10T12:47:56;0.80;79.50
69382;DHT22;56560;50.692;12.844;2022-12-10T12:50:48;0.80;80.50
69382;DHT22;56560;50.692;12.844;2022-12-10T12:53:17;0.80;80.90
69382;DHT22;56560;50.692;12.844;2022-12-10T13:04:07;0.80;80.80
69382;DHT22;56560;50.692;12.844;2022-12-10T13:06:35;0.80;81.10
69382;DHT22;56560;50.692;12.844;2022-12-10T13:12:29;0.70;81.40
69382;DHT22;56560;50.692;12.844;2022-12-10T13:14:34;0.50;81.80
69382;DHT22;56560;50.692;12.844;2022-12-10T13:17:27;0.50;82.10
69382;DHT22;56560;50.692;12.844;2022-12-10T13:19:53;0.50;83.20
69382;DHT22;56560;50.692;12.844;2022-12-10T13:27:37;0.40;83.40
69382;DHT22;56560;50.692;12.844;2022-12-10T13:40:37;0.90;79.50
69382;DHT22;56560;50.692;12.844;2022-12-10T13:46:35;0.70;80.90
69382;DHT22;56560;50.692;12.844;2022-12-10T13:49:18;0.80;80.90
69382;DHT22;56560;50.692;12.844;2022-12-10T13:52:05;0.80;80.50
69382;DHT22;56560;50.692;12.844;2022-12-10T13:57:23;0.80;80.00
69382;DHT22;56560;50.692;12.844;2022-12-10T14:02:56;0.50;79.70
69382;DHT22;56560;50.692;12.844;2022-12-10T14:08:26;0.30;81.00
69382;DHT22;56560;50.692;12.844;2022-12-10T14:10:53;0.30;80.80
69382;DHT22;56560;50.692;12.844;2022-12-10T14:13:21;0.30;81.70
69382;DHT22;56560;50.692;12.844;2022-12-10T14:15:54;0.20;81.70
69382;DHT22;56560;50.692;12.844;2022-12-10T14:18:31;0.30;82.00
69382;DHT22;56560;50.692;12.844;2022-12-10T14:20:57;0.30;82.00
69382;DHT22;56560;50.692;12.844;2022-12-10T14:23:33;0.30;81.30
69382;DHT22;56560;50.692;12.844;2022-12-10T14:28:47;0.20;81.20
69382;DHT22;56560;50.692;12.844;2022-12-10T14:31:19;0.20;81.70
69382;DHT22;56560;50.692;12.844;2022-12-10T14:33:49;0.20;81.20
69382;DHT22;56560;50.692;12.844;2022-12-10T14:36:28;0.20;81.80
69382;DHT22;56560;50.692;12.844;2022-12-10T14:38:55;0.20;82.60
69382;DHT22;56560;50.692;12.844;2022-12-10T14:41:22;0.30;82.00
69382;DHT22;56560;50.692;12.844;2022-12-10T14:43:49;0.20;81.90
69382;DHT22;56560;50.692;12.844;2022-12-10T14:46:33;0.20;82.20
69382;DHT22;56560;50.692;12.844;2022-12-10T14:49:01;0.20;82.60
69382;DHT22;56560;50.692;12.844;2022-12-10T14:51:33;0.20;82.40
69382;DHT22;56560;50.692;12.844;2022-12-10T14:53:59;0.10;82.70
69382;DHT22;56560;50.692;12.844;2022-12-10T14:56:32;0.10;82.60
69382;DHT22;56560;50.692;12.844;2022-12-10T14:59:25;0.00;82.50
69382;DHT22;56560;50.692;12.844;2022-12-10T15:01:56;0.00;83.20
69382;DHT22;56560;50.692;12.844;2022-12-10T15:04:29;-0.10;82.00
69382;DHT22;56560;50.692;12.844;2022-12-10T15:06:58;-0.20;83.80
69382;DHT22;56560;50.692;12.844;2022-12-10T15:09:26;-0.30;83.10
69382;DHT22;56560;50.692;12.844;2022-12-10T15:11:57;-0.30;83.40
69382;DHT22;56560;50.692;12.844;2022-12-10T15:14:24;-0.30;83.40
69382;DHT22;56560;50.692;12.844;2022-12-10T15:16:51;-0.20;83.30
69382;DHT22;56560;50.692;12.844;2022-12-10T15:19:31;-0.30;83.80
69382;DHT22;56560;50.692;12.844;2022-12-10T15:22:19;-0.30;84.80
69382;DHT22;56560;50.692;12.844;2022-12-10T15:24:45;-0.30;84.40
69382;DHT22;56560;50.692;12.844;2022-12-10T15:27:19;-0.30;84.20
69382;DHT22;56560;50.692;12.844;2022-12-10T15:29:46;-0.40;83.80
69382;DHT22;56560;50.692;12.844;2022-12-10T15:32:14;-0.50;85.20
69382;DHT22;56560;50.692;12.844;2022-12-10T15:34:46;-0.50;85.10
69382;DHT22;56560;50.692;12.844;2022-12-10T15:37:41;-0.50;84.80
69382;DHT22;56560;50.692;12.844;2022-12-10T15:40:29;-0.60;84.10
69382;DHT22;56560;50.692;12.844;2022-12-10T15:43:10;-0.60;84.40
69382;DHT22;56560;50.692;12.844;2022-12-10T15:45:40;-0.60;84.40
69382;DHT22;56560;50.692;12.844;2022-12-10T15:48:11;-0.50;82.80
69382;DHT22;56560;50.692;12.844;2022-12-10T15:50:39;-0.60;83.10
69382;DHT22;56560;50.692;12.844;2022-12-10T15:53:11;-0.60;83.70
69382;DHT22;56560;50.692;12.844;2022-12-10T15:55:37;-0.50;84.20
69382;DHT22;56560;50.692;12.844;2022-12-10T15:58:10;-0.40;84.20
69382;DHT22;56560;50.692;12.844;2022-12-10T16:00:35;-0.40;83.80
69382;DHT22;56560;50.692;12.844;2022-12-10T16:03:05;-0.50;84.40
69382;DHT22;56560;50.692;12.844;2022-12-10T16:05:37;-0.50;84.50
69382;DHT22;56560;50.692;12.844;2022-12-10T16:08:20;-0.40;84.70
69382;DHT22;56560;50.692;12.844;2022-12-10T16:10:51;-0.40;83.70
69382;DHT22;56560;50.692;12.844;2022-12-10T16:13:23;-0.50;83.40
69382;DHT22;56560;50.692;12.844;2022-12-10T16:15:55;-0.50;83.90
69382;DHT22;56560;50.692;12.844;2022-12-10T16:18:23;-0.40;83.70
69382;DHT22;56560;50.692;12.844;2022-12-10T16:20:49;-0.40;83.30
69382;DHT22;56560;50.692;12.844;2022-12-10T16:23:14;-0.40;83.50
69382;DHT22;56560;50.692;12.844;2022-12-10T16:25:41;-0.40;83.30
69382;DHT22;56560;50.692;12.844;2022-12-10T16:28:11;-0.40;83.00
69382;DHT22;56560;50.692;12.844;2022-12-10T16:30:58;-0.40;83.30
69382;DHT22;56560;50.692;12.844;2022-12-10T16:33:25;-0.30;83.30
69382;DHT22;56560;50.692;12.844;2022-12-10T16:35:52;-0.30;83.00
69382;DHT22;56560;50.692;12.844;2022-12-10T16:38:19;-0.20;82.10
69382;DHT22;56560;50.692;12.844;2022-12-10T16:40:46;-0.30;81.70
69382;DHT22;56560;50.692;12.844;2022-12-10T16:43:20;-0.40;82.50
69382;DHT22;56560;50.692;12.844;2022-12-10T16:45:46;-0.40;83.60
69382;DHT22;56560;50.692;12.844;2022-12-10T16:48:12;-0.40;83.50
69382;DHT22;56560;50.692;12.844;2022-12-10T16:50:38;-0.40;83.70
69382;DHT22;56560;50.692;12.844;2022-12-10T16:53:25;-0.40;82.60
69382;DHT22;56560;50.692;12.844;2022-12-10T16:55:52;-0.50;84.40
69382;DHT22;56560;50.692;12.844;2022-12-10T16:58:20;-0.40;85.00
69382;DHT22;56560;50.692;12.844;2022-12-10T17:00:48;-0.30;85.00
69382;DHT22;56560;50.692;12.844;2022-12-10T17:03:16;-0.30;84.40
69382;DHT22;56560;50.692;12.844;2022-12-10T17:05:54;-0.50;84.80
69382;DHT22;56560;50.692;12.844;2022-12-10T17:08:20;-0.60;85.60
69382;DHT22;56560;50.692;12.844;2022-12-10T17:10:47;-0.70;86.20
69382;DHT22;56560;50.692;12.844;2022-12-10T17:13:33;-0.80;87.20
69382;DHT22;56560;50.692;12.844;2022-12-10T17:15:59;-0.80;87.30
69382;DHT22;56560;50.692;12.844;2022-12-10T17:18:24;-0.70;87.40
69382;DHT22;56560;50.692;12.844;2022-12-10T17:20:50;-0.60;87.30
69382;DHT22;56560;50.692;12.844;2022-12-10T17:23:16;-0.60;86.80
69382;DHT22;56560;50.692;12.844;2022-12-10T17:25:43;-0.60;86.40
69382;DHT22;56560;50.692;12.844;2022-12-10T17:28:20;-0.60;86.60
69382;DHT22;56560;50.692;12.844;2022-12-10T17:30:47;-0.50;86.00
69382;DHT22;56560;50.692;12.844;2022-12-10T17:33:15;-0.50;85.90
69382;DHT22;56560;50.692;12.844;2022-12-10T17:35:43;-0.50;85.40
69382;DHT22;56560;50.692;12.844;2022-12-10T17:38:21;-0.50;85.30
69382;DHT22;56560;50.692;12.844;2022-12-10T17:40:47;-0.50;85.40